createdAt,value
2023-05-03T00:00:41.817Z,16.92
2023-05-03T00:03:08.389Z,16.96
2023-05-03T00:05:35.053Z,16.94
2023-05-03T00:08:02.238Z,16.77
2023-05-03T00:10:29.356Z,16.77
2023-05-03T00:12:56.803Z,16.58
2023-05-03T00:15:23.429Z,16.41
2023-05-03T00:17:50.235Z,16.36
2023-05-03T00:20:17.579Z,16.20
2023-05-03T00:22:44.173Z,16.20
2023-05-03T00:25:10.761Z,16.28
2023-05-03T00:27:37.462Z,16.25
2023-05-03T00:30:05.079Z,16.19
2023-05-03T00:32:31.968Z,16.12
2023-05-03T00:34:58.884Z,16.12
2023-05-03T00:37:25.515Z,16.14
2023-05-03T00:39:52.455Z,16.09
2023-05-03T00:42:19.364Z,16.14
2023-05-03T00:44:45.899Z,16.10
2023-05-03T00:47:12.797Z,16.03
2023-05-03T00:49:39.710Z,16.01
2023-05-03T00:52:06.612Z,15.97
2023-05-03T00:54:35.063Z,16.04
2023-05-03T00:57:02.237Z,16.02
2023-05-03T00:59:29.099Z,16.01
2023-05-03T01:01:55.746Z,16.04
2023-05-03T01:04:23.649Z,16.06
2023-05-03T01:07:16.987Z,16.21
2023-05-03T01:09:53.570Z,16.15
2023-05-03T01:12:33.435Z,16.10
2023-05-03T01:15:21.206Z,16.13
2023-05-03T01:18:04.276Z,16.11
2023-05-03T01:20:35.194Z,16.08
2023-05-03T01:23:10.700Z,15.93
2023-05-03T01:25:37.305Z,16.04
2023-05-03T01:28:03.923Z,16.05
2023-05-03T01:30:32.850Z,16.03
2023-05-03T01:33:03.524Z,16.00
2023-05-03T01:35:37.309Z,16.00
2023-05-03T01:38:05.027Z,15.95
2023-05-03T01:40:55.818Z,15.85
2023-05-03T01:43:23.360Z,15.93
2023-05-03T01:45:50.378Z,15.90
2023-05-03T01:48:18.792Z,15.96
2023-05-03T01:50:45.881Z,15.90
2023-05-03T01:53:12.654Z,15.80
2023-05-03T01:55:39.183Z,15.73
2023-05-03T01:58:06.158Z,15.78
2023-05-03T02:00:33.002Z,15.79
2023-05-03T02:02:59.641Z,15.86
2023-05-03T02:05:26.187Z,15.91
2023-05-03T02:07:53.956Z,15.89
2023-05-03T02:10:20.999Z,15.93
2023-05-03T02:12:47.557Z,15.81
2023-05-03T02:15:14.406Z,15.83
2023-05-03T02:17:42.932Z,15.85
2023-05-03T02:20:12.588Z,15.87
2023-05-03T02:22:39.239Z,16.18
2023-05-03T02:25:06.735Z,16.13
2023-05-03T02:27:33.367Z,16.09
2023-05-03T02:30:01.088Z,16.07
2023-05-03T02:32:28.160Z,16.13
2023-05-03T02:34:54.922Z,16.19
2023-05-03T02:37:23.505Z,16.27
2023-05-03T02:39:50.136Z,16.25
2023-05-03T02:42:17.176Z,16.00
2023-05-03T02:44:46.399Z,16.24
2023-05-03T02:47:13.048Z,16.23
2023-05-03T02:49:41.808Z,16.24
2023-05-03T02:52:08.405Z,16.20
2023-05-03T02:54:34.936Z,16.11
2023-05-03T02:57:07.414Z,16.23
2023-05-03T02:59:34.062Z,16.35
2023-05-03T03:02:01.534Z,16.31
2023-05-03T03:04:28.959Z,15.86
2023-05-03T03:06:56.732Z,16.20
2023-05-03T03:09:23.404Z,16.23
2023-05-03T03:11:53.175Z,16.20
2023-05-03T03:14:20.206Z,16.37
2023-05-03T03:16:46.827Z,16.41
2023-05-03T03:19:13.757Z,16.33
2023-05-03T03:21:41.628Z,16.31
2023-05-03T03:24:08.905Z,16.35
2023-05-03T03:26:35.446Z,16.40
2023-05-03T03:29:02.171Z,16.50
2023-05-03T03:31:28.830Z,16.36
2023-05-03T03:33:56.179Z,16.30
2023-05-03T03:36:26.291Z,16.48
2023-05-03T03:38:52.912Z,16.65
2023-05-03T03:41:19.807Z,16.41
2023-05-03T03:43:46.670Z,16.42
2023-05-03T03:46:17.520Z,16.54
2023-05-03T03:48:44.830Z,16.60
2023-05-03T03:51:11.428Z,16.51
2023-05-03T03:53:44.091Z,16.46
2023-05-03T03:56:10.833Z,16.10
2023-05-03T03:58:37.546Z,16.30
2023-05-03T04:01:06.839Z,16.39
2023-05-03T04:03:33.489Z,16.43
2023-05-03T04:06:00.058Z,16.30
2023-05-03T04:08:27.955Z,16.27
2023-05-03T04:10:54.497Z,16.21
2023-05-03T04:13:21.280Z,16.19
2023-05-03T04:15:54.679Z,16.18
2023-05-03T04:18:22.136Z,16.28
2023-05-03T04:20:49.291Z,16.21
2023-05-03T04:23:16.787Z,16.13
2023-05-03T04:25:46.915Z,16.22
2023-05-03T04:28:15.275Z,16.11
2023-05-03T04:30:47.202Z,16.19
2023-05-03T04:33:16.936Z,16.25
2023-05-03T04:35:43.766Z,16.24
2023-05-03T04:38:13.857Z,16.13
2023-05-03T04:40:41.209Z,16.19
2023-05-03T04:43:09.597Z,15.89
2023-05-03T04:45:39.683Z,16.12
2023-05-03T04:48:09.226Z,16.03
2023-05-03T04:50:36.317Z,16.09
2023-05-03T04:53:04.413Z,15.71
2023-05-03T04:55:33.996Z,15.67
2023-05-03T04:58:01.968Z,15.88
2023-05-03T05:00:28.884Z,15.68
2023-05-03T05:03:01.254Z,15.74
2023-05-03T05:05:30.378Z,15.55
2023-05-03T05:07:59.311Z,15.53
2023-05-03T05:10:29.983Z,15.58
2023-05-03T05:12:58.175Z,15.84
2023-05-03T05:15:25.140Z,16.03
2023-05-03T05:17:51.986Z,16.17
2023-05-03T05:20:19.860Z,16.29
2023-05-03T05:22:49.380Z,16.38
2023-05-03T05:25:15.971Z,16.42
2023-05-03T05:27:42.570Z,16.49
2023-05-03T05:30:09.574Z,16.45
2023-05-03T05:32:38.621Z,16.48
2023-05-03T05:35:08.699Z,16.52
2023-05-03T05:37:36.117Z,16.32
2023-05-03T05:40:05.108Z,16.45
2023-05-03T05:42:37.479Z,17.03
2023-05-03T05:45:04.731Z,16.70
2023-05-03T05:47:31.417Z,16.77
2023-05-03T05:49:59.105Z,16.73
2023-05-03T05:52:25.682Z,16.89
2023-05-03T05:54:52.273Z,17.07
2023-05-03T05:57:19.194Z,17.21
2023-05-03T05:59:46.113Z,17.24
2023-05-03T06:02:17.041Z,17.22
2023-05-03T06:04:46.769Z,17.38
2023-05-03T06:07:14.515Z,17.39
2023-05-03T06:09:41.413Z,17.48
2023-05-03T06:12:08.417Z,17.65
2023-05-03T06:14:37.459Z,17.71
2023-05-03T06:17:04.822Z,17.79
2023-05-03T06:19:31.687Z,17.97
2023-05-03T06:21:58.471Z,17.87
2023-05-03T06:24:30.987Z,17.77
2023-05-03T06:26:58.651Z,17.87
2023-05-03T06:29:25.439Z,17.92
2023-05-03T06:31:52.250Z,17.60
2023-05-03T06:34:21.584Z,17.76
2023-05-03T06:36:50.211Z,17.78
2023-05-03T06:39:18.274Z,18.13
2023-05-03T06:41:45.562Z,18.20
2023-05-03T06:44:12.765Z,18.48
2023-05-03T06:46:39.451Z,18.55
2023-05-03T06:49:06.153Z,18.54
2023-05-03T06:51:33.411Z,18.51
2023-05-03T06:54:06.502Z,18.55
2023-05-03T06:56:33.879Z,18.31
2023-05-03T06:59:01.177Z,18.48
2023-05-03T07:01:28.194Z,18.58
2023-05-03T07:03:54.879Z,18.89
2023-05-03T07:06:23.467Z,18.85
2023-05-03T07:08:51.865Z,18.77
2023-05-03T07:11:19.399Z,18.61
2023-05-03T07:13:46.384Z,18.47
2023-05-03T07:16:12.992Z,18.72
2023-05-03T07:18:40.094Z,18.69
2023-05-03T07:21:08.667Z,18.51
2023-05-03T07:23:36.177Z,18.76
2023-05-03T07:26:02.734Z,18.80
2023-05-03T07:28:29.331Z,18.57
2023-05-03T07:30:55.891Z,18.70
2023-05-03T07:33:22.700Z,18.90
2023-05-03T07:35:50.607Z,19.06
2023-05-03T07:38:17.611Z,19.24
2023-05-03T07:40:44.505Z,19.31
2023-05-03T07:43:11.140Z,19.49
2023-05-03T07:45:38.308Z,19.32
2023-05-03T07:48:06.268Z,19.46
2023-05-03T07:50:32.864Z,19.58
2023-05-03T07:52:59.436Z,19.96
2023-05-03T07:55:26.618Z,20.12
2023-05-03T07:57:58.319Z,20.38
2023-05-03T08:00:26.194Z,20.16
2023-05-03T08:02:52.938Z,20.17
2023-05-03T08:05:19.832Z,20.24
2023-05-03T08:07:46.825Z,20.39
2023-05-03T08:10:13.445Z,20.41
2023-05-03T08:12:40.042Z,20.58
2023-05-03T08:15:07.344Z,20.57
2023-05-03T08:17:44.039Z,20.69
2023-05-03T08:20:11.468Z,20.79
2023-05-03T08:22:38.666Z,20.90
2023-05-03T08:25:05.985Z,21.06
2023-05-03T08:27:32.899Z,21.08
2023-05-03T08:30:01.510Z,21.03
2023-05-03T08:32:28.383Z,21.16
2023-05-03T08:34:56.017Z,21.27
2023-05-03T08:37:23.175Z,21.23
2023-05-03T08:39:49.759Z,21.39
2023-05-03T08:42:16.301Z,21.51
2023-05-03T08:44:48.550Z,21.63
2023-05-03T08:47:16.972Z,21.68
2023-05-03T08:49:44.392Z,22.06
2023-05-03T08:52:12.264Z,22.05
2023-05-03T08:54:38.948Z,22.22
2023-05-03T08:57:11.290Z,22.35
2023-05-03T08:59:48.411Z,22.69
2023-05-03T09:02:16.402Z,22.67
2023-05-03T09:04:43.352Z,22.38
2023-05-03T09:07:13.423Z,22.48
2023-05-03T09:09:40.031Z,22.27
2023-05-03T09:12:06.672Z,22.50
2023-05-03T09:14:45.441Z,22.46
2023-05-03T09:17:22.233Z,22.23
2023-05-03T09:19:54.079Z,22.22
2023-05-03T09:22:22.385Z,22.55
2023-05-03T09:24:56.925Z,22.85
2023-05-03T09:27:24.823Z,23.04
2023-05-03T09:29:52.190Z,23.18
2023-05-03T09:32:19.688Z,22.65
2023-05-03T09:34:46.285Z,23.16
2023-05-03T09:37:16.505Z,23.56
2023-05-03T09:39:45.670Z,23.40
2023-05-03T09:42:16.850Z,23.49
2023-05-03T09:44:48.887Z,24.41
2023-05-03T09:47:15.905Z,24.25
2023-05-03T09:49:43.666Z,23.58
2023-05-03T09:52:11.084Z,24.30
2023-05-03T09:54:38.267Z,24.14
2023-05-03T09:57:07.426Z,23.02
2023-05-03T09:59:35.375Z,22.84
2023-05-03T10:02:07.425Z,22.99
2023-05-03T10:04:47.621Z,23.60
2023-05-03T10:07:17.956Z,24.05
2023-05-03T10:09:46.732Z,24.03
2023-05-03T10:12:17.004Z,23.31
2023-05-03T10:14:46.501Z,23.94
2023-05-03T10:17:39.299Z,23.50
2023-05-03T10:20:46.029Z,23.31
2023-05-03T10:23:13.756Z,23.69
2023-05-03T10:26:07.015Z,22.59
2023-05-03T10:28:34.149Z,22.84
2023-05-03T10:31:00.760Z,23.72
2023-05-03T10:33:37.352Z,24.61
2023-05-03T10:36:10.379Z,24.72
2023-05-03T10:38:37.923Z,25.18
2023-05-03T10:41:06.733Z,24.98
2023-05-03T10:43:36.276Z,25.22
2023-05-03T10:46:08.706Z,25.03
2023-05-03T10:48:35.738Z,25.43
2023-05-03T10:51:33.079Z,24.79
2023-05-03T10:53:59.753Z,25.21
2023-05-03T10:56:26.385Z,25.45
2023-05-03T10:58:56.852Z,25.15
2023-05-03T11:01:24.398Z,25.34
2023-05-03T11:04:20.631Z,25.80
2023-05-03T11:06:49.676Z,24.92
2023-05-03T11:09:16.548Z,25.25
2023-05-03T11:11:43.506Z,25.04
2023-05-03T11:14:10.640Z,25.66
2023-05-03T11:16:40.575Z,25.14
2023-05-03T11:19:07.237Z,25.74
2023-05-03T11:21:33.860Z,25.79
2023-05-03T11:24:01.832Z,24.01
2023-05-03T11:26:28.396Z,24.74
2023-05-03T11:28:55.016Z,22.70
2023-05-03T11:31:22.531Z,22.54
2023-05-03T11:33:50.299Z,23.60
2023-05-03T11:36:16.929Z,24.77
2023-05-03T11:38:43.531Z,25.40
2023-05-03T11:41:16.149Z,24.72
2023-05-03T11:43:47.693Z,25.48
2023-05-03T11:46:21.527Z,25.71
2023-05-03T11:48:48.142Z,25.55
2023-05-03T11:51:15.135Z,26.38
2023-05-03T11:53:43.883Z,26.54
2023-05-03T11:56:15.199Z,26.34
2023-05-03T11:58:57.386Z,27.96
2023-05-03T12:01:26.337Z,29.23
2023-05-03T12:03:54.543Z,28.31
2023-05-03T12:06:22.395Z,28.51
2023-05-03T12:08:50.090Z,28.26
2023-05-03T12:11:17.980Z,27.87
2023-05-03T12:13:45.452Z,28.11
2023-05-03T12:16:15.605Z,27.25
2023-05-03T12:19:03.101Z,26.59
2023-05-03T12:22:00.895Z,27.31
2023-05-03T12:24:34.755Z,27.32
2023-05-03T12:27:03.196Z,27.56
2023-05-03T12:29:34.154Z,28.02
2023-05-03T12:32:03.247Z,27.89
2023-05-03T12:34:34.697Z,28.11
2023-05-03T12:37:04.665Z,28.85
2023-05-03T12:39:39.300Z,28.56
2023-05-03T12:42:08.896Z,28.47
2023-05-03T12:44:41.354Z,29.54
2023-05-03T12:47:10.017Z,29.97
2023-05-03T12:49:39.015Z,29.42
2023-05-03T12:54:40.320Z,27.96
2023-05-03T12:57:14.628Z,28.51
2023-05-03T12:59:43.328Z,28.40
2023-05-03T13:07:16.818Z,28.34
2023-05-03T13:12:33.446Z,28.87
2023-05-03T13:15:03.613Z,28.90
2023-05-03T13:17:31.338Z,28.30
2023-05-03T13:19:58.164Z,27.97
2023-05-03T13:22:28.814Z,28.13
2023-05-03T13:24:56.042Z,28.42
2023-05-03T13:27:22.809Z,29.13
2023-05-03T13:29:49.777Z,28.89
2023-05-03T13:32:16.872Z,29.76
2023-05-03T13:34:44.296Z,30.38
2023-05-03T13:37:11.590Z,30.61
2023-05-03T13:39:38.230Z,30.14
2023-05-03T13:42:04.897Z,29.42
2023-05-03T13:44:31.402Z,28.16
2023-05-03T13:46:58.291Z,28.74
2023-05-03T13:49:25.529Z,28.87
2023-05-03T13:51:55.362Z,28.63
2023-05-03T13:54:21.907Z,28.58
2023-05-03T13:56:48.537Z,29.89
2023-05-03T13:59:16.094Z,31.09
2023-05-03T14:01:43.380Z,30.75
2023-05-03T14:04:10.571Z,31.51
2023-05-03T14:06:40.329Z,32.81
2023-05-03T14:09:07.704Z,33.35
2023-05-03T14:11:34.299Z,33.14
2023-05-03T14:14:00.988Z,32.71
2023-05-03T14:18:57.375Z,30.05
2023-05-03T14:21:24.476Z,28.52
2023-05-03T14:23:51.074Z,28.41
2023-05-03T14:26:18.201Z,28.13
2023-05-03T14:28:44.873Z,27.49
2023-05-03T14:31:13.096Z,27.87
2023-05-03T14:33:39.718Z,27.38
2023-05-03T14:36:08.467Z,27.50
2023-05-03T14:38:35.788Z,27.25
2023-05-03T14:41:02.433Z,27.06
2023-05-03T14:43:29.082Z,27.22
2023-05-03T14:45:55.685Z,27.09
2023-05-03T14:48:22.291Z,27.04
2023-05-03T14:50:52.793Z,26.97
2023-05-03T14:53:19.462Z,27.33
2023-05-03T14:55:46.698Z,27.03
2023-05-03T14:58:13.803Z,26.91
2023-05-03T15:00:41.614Z,26.87
2023-05-03T15:03:11.891Z,28.38
2023-05-03T15:05:43.189Z,30.15
2023-05-03T15:08:10.495Z,30.62
2023-05-03T15:10:44.964Z,30.83
2023-05-03T15:13:13.185Z,30.21
2023-05-03T15:15:43.457Z,29.68
2023-05-03T15:18:10.890Z,29.84
2023-05-03T15:20:37.994Z,29.38
2023-05-03T15:23:05.051Z,28.15
2023-05-03T15:25:32.006Z,28.55
2023-05-03T15:27:59.966Z,27.94
2023-05-03T15:30:28.943Z,27.88
2023-05-03T15:32:55.592Z,27.96
2023-05-03T15:35:22.298Z,27.43
2023-05-03T15:37:48.866Z,27.20
2023-05-03T15:40:15.590Z,27.08
2023-05-03T15:42:42.171Z,27.46
2023-05-03T15:45:10.476Z,27.86
2023-05-03T15:47:37.191Z,28.73
2023-05-03T15:50:07.454Z,29.18
2023-05-03T15:52:34.971Z,29.05
2023-05-03T15:55:01.758Z,28.73
2023-05-03T15:57:30.196Z,29.46
2023-05-03T15:59:57.216Z,29.82
2023-05-03T16:02:23.897Z,29.83
2023-05-03T16:04:50.732Z,30.12
2023-05-03T16:07:17.956Z,29.73
2023-05-03T16:09:44.927Z,30.22
2023-05-03T16:12:11.732Z,30.16
2023-05-03T16:14:38.334Z,30.39
2023-05-03T16:17:04.854Z,29.16
2023-05-03T16:19:31.994Z,29.13
2023-05-03T16:21:58.858Z,28.70
2023-05-03T16:24:25.544Z,28.91
2023-05-03T16:26:52.594Z,28.10
2023-05-03T16:29:19.593Z,29.06
2023-05-03T16:31:46.924Z,28.20
2023-05-03T16:34:14.006Z,28.16
2023-05-03T16:36:42.657Z,26.73
2023-05-03T16:39:10.873Z,28.15
2023-05-03T16:41:37.641Z,28.25
2023-05-03T16:44:08.366Z,28.23
2023-05-03T16:46:40.163Z,28.41
2023-05-03T16:49:07.146Z,28.23
2023-05-03T16:51:34.455Z,28.22
2023-05-03T16:54:04.298Z,27.57
2023-05-03T16:56:31.233Z,27.72
2023-05-03T16:58:59.206Z,27.83
2023-05-03T17:01:26.446Z,27.12
2023-05-03T17:03:53.279Z,27.60
2023-05-03T17:06:20.003Z,27.81
2023-05-03T17:08:46.550Z,27.53
2023-05-03T17:11:14.154Z,27.21
2023-05-03T17:13:40.730Z,27.72
2023-05-03T17:16:09.151Z,27.54
2023-05-03T17:18:37.084Z,27.71
2023-05-03T17:21:07.795Z,27.78
2023-05-03T17:23:36.124Z,27.57
2023-05-03T17:26:11.298Z,27.61
2023-05-03T17:28:37.897Z,27.50
2023-05-03T17:31:06.304Z,27.34
2023-05-03T17:33:34.046Z,27.26
2023-05-03T17:36:02.381Z,27.05
2023-05-03T17:38:29.055Z,27.07
2023-05-03T17:40:55.623Z,27.19
2023-05-03T17:43:22.279Z,27.25
2023-05-03T17:45:48.931Z,27.20
2023-05-03T17:48:15.604Z,26.97
2023-05-03T17:50:43.196Z,26.79
2023-05-03T17:53:09.894Z,26.70
2023-05-03T17:55:38.211Z,26.39
2023-05-03T17:58:06.417Z,26.23
2023-05-03T18:00:33.636Z,26.30
2023-05-03T18:03:00.552Z,26.13
2023-05-03T18:05:27.287Z,26.10
2023-05-03T18:07:54.010Z,26.07
2023-05-03T18:10:20.745Z,25.88
2023-05-03T18:12:47.285Z,25.75
2023-05-03T18:15:15.313Z,25.65
2023-05-03T18:17:42.690Z,25.45
2023-05-03T18:20:10.091Z,25.33
2023-05-03T18:22:37.399Z,25.28
2023-05-03T18:25:07.234Z,25.20
2023-05-03T18:27:36.598Z,25.17
2023-05-03T18:30:07.124Z,25.07
2023-05-03T18:32:34.093Z,25.09
2023-05-03T18:35:00.858Z,24.83
2023-05-03T18:37:27.723Z,24.83
2023-05-03T18:39:54.400Z,24.74
2023-05-03T18:42:22.308Z,24.65
2023-05-03T18:44:49.083Z,24.57
2023-05-03T18:47:20.218Z,24.52
2023-05-03T18:49:52.722Z,24.48
2023-05-03T18:52:23.116Z,24.53
2023-05-03T18:54:50.335Z,24.39
2023-05-03T18:57:16.877Z,24.18
2023-05-03T18:59:56.568Z,23.97
2023-05-03T19:02:30.254Z,23.99
2023-05-03T19:04:56.921Z,23.78
2023-05-03T19:07:23.671Z,23.73
2023-05-03T19:09:57.410Z,23.74
2023-05-03T19:12:24.060Z,23.67
2023-05-03T19:14:50.594Z,23.71
2023-05-03T19:17:17.169Z,23.71
2023-05-03T19:19:43.779Z,23.43
2023-05-03T19:22:10.352Z,23.42
2023-05-03T19:24:36.916Z,23.34
2023-05-03T19:27:04.576Z,23.35
2023-05-03T19:29:31.391Z,23.40
2023-05-03T19:31:57.958Z,23.27
2023-05-03T19:34:24.520Z,23.23
2023-05-03T19:36:51.096Z,23.19
2023-05-03T19:39:17.735Z,23.15
2023-05-03T19:41:44.311Z,23.17
2023-05-03T19:44:11.022Z,23.12
2023-05-03T19:46:37.585Z,22.96
2023-05-03T19:49:04.258Z,22.91
2023-05-03T19:51:31.461Z,23.06
2023-05-03T19:54:00.720Z,22.97
2023-05-03T19:56:27.538Z,22.89
2023-05-03T19:58:55.308Z,22.82
2023-05-03T20:01:21.869Z,22.75
2023-05-03T20:03:48.578Z,22.84
2023-05-03T20:06:15.332Z,22.73
2023-05-03T20:08:41.943Z,22.77
2023-05-03T20:11:08.576Z,22.69
2023-05-03T20:13:35.157Z,22.60
2023-05-03T20:16:04.887Z,22.48
2023-05-03T20:18:31.579Z,22.50
2023-05-03T20:20:58.086Z,22.47
2023-05-03T20:23:24.832Z,22.40
2023-05-03T20:25:51.366Z,22.39
2023-05-03T20:28:17.984Z,22.35
2023-05-03T20:30:44.644Z,22.38
2023-05-03T20:33:11.446Z,22.36
2023-05-03T20:38:07.423Z,22.27
2023-05-03T20:40:34.429Z,22.35
2023-05-03T20:43:04.332Z,22.21
2023-05-03T20:45:31.059Z,22.22
2023-05-03T20:47:57.658Z,22.20
2023-05-03T20:50:24.297Z,22.24
2023-05-03T20:52:50.897Z,22.24
2023-05-03T20:55:17.559Z,22.15
2023-05-03T20:57:44.129Z,22.16
2023-05-03T21:00:15.722Z,22.08
2023-05-03T21:02:43.188Z,22.07
2023-05-03T21:05:11.099Z,22.09
2023-05-03T21:07:38.349Z,21.99
2023-05-03T21:10:06.836Z,22.00
2023-05-03T21:12:33.584Z,22.05
2023-05-03T21:15:00.165Z,22.04
2023-05-03T21:17:26.797Z,21.93
2023-05-03T21:19:53.321Z,21.80
2023-05-03T21:22:20.084Z,21.78
2023-05-03T21:24:46.604Z,21.93
2023-05-03T21:27:13.281Z,21.87
2023-05-03T21:29:39.800Z,21.71
2023-05-03T21:32:06.715Z,21.65
2023-05-03T21:34:33.278Z,21.56
2023-05-03T21:37:01.059Z,21.54
2023-05-03T21:39:27.676Z,21.72
2023-05-03T21:41:54.653Z,21.65
2023-05-03T21:44:21.218Z,21.55
2023-05-03T21:46:47.767Z,21.57
2023-05-03T21:49:15.208Z,21.58
2023-05-03T21:51:41.881Z,21.49
2023-05-03T21:54:08.399Z,21.47
2023-05-03T21:56:34.943Z,21.39
2023-05-03T21:59:01.563Z,21.39
2023-05-03T22:01:28.681Z,21.28
2023-05-03T22:03:55.521Z,21.33
2023-05-03T22:06:22.323Z,21.31
2023-05-03T22:08:49.165Z,21.28
2023-05-03T22:11:15.699Z,21.30
2023-05-03T22:13:58.755Z,21.10
2023-05-03T22:16:28.875Z,21.12
2023-05-03T22:18:55.708Z,21.16
2023-05-03T22:21:22.294Z,21.02
2023-05-03T22:23:48.863Z,21.08
2023-05-03T22:26:15.387Z,20.93
2023-05-03T22:28:41.918Z,20.89
2023-05-03T22:31:08.492Z,20.91
2023-05-03T22:33:36.330Z,20.88
2023-05-03T22:36:02.960Z,20.81
2023-05-03T22:38:29.609Z,20.74
2023-05-03T22:40:56.134Z,20.69
2023-05-03T22:43:22.708Z,20.78
2023-05-03T22:45:49.275Z,20.67
2023-05-03T22:48:15.940Z,20.67
2023-05-03T22:50:42.480Z,20.57
2023-05-03T22:53:09.100Z,20.47
2023-05-03T22:55:35.962Z,20.47
2023-05-03T22:58:02.500Z,20.37
2023-05-03T23:00:29.229Z,20.44
2023-05-03T23:02:56.023Z,20.25
2023-05-03T23:05:22.634Z,20.23
2023-05-03T23:07:49.266Z,20.28
2023-05-03T23:10:15.784Z,20.20
2023-05-03T23:12:42.343Z,20.21
2023-05-03T23:15:09.143Z,20.09
2023-05-03T23:17:35.735Z,20.24
2023-05-03T23:20:02.641Z,20.16
2023-05-03T23:22:29.443Z,20.07
2023-05-03T23:24:55.974Z,20.01
2023-05-03T23:27:22.879Z,19.92
2023-05-03T23:29:50.713Z,19.89
2023-05-03T23:32:17.748Z,19.89
2023-05-03T23:34:44.672Z,19.77
2023-05-03T23:37:11.189Z,19.82
2023-05-03T23:39:42.787Z,19.84
2023-05-03T23:42:09.682Z,19.74
2023-05-03T23:44:53.148Z,19.60
2023-05-03T23:47:21.485Z,19.61
2023-05-03T23:49:48.025Z,19.68
2023-05-03T23:52:16.801Z,19.54
2023-05-03T23:54:43.380Z,19.47
2023-05-03T23:57:10.002Z,19.41
2023-05-03T23:59:36.587Z,19.39
